Time;durP1;ratioP1;P1;durP2;ratioP2;P2;SDS_P1;SDS_P2;PMS_P1;PMS_P2;Temp;Humidity;BMP_temperature;BMP_pressure;BME280_temperature;BME280_humidity;BME280_pressure;Samples;Min_cycle;Max_cycle;Signal;HPM_P1;HPM_P2
2022/09/06 00:03:49;;;;;;;1.38;1.00;;;22.50;99.90;;;;;;20789939;28;20265;-71
2022/09/06 00:13:51;;;;;;;1.27;0.82;;;;;;;;;;20789049;28;20279;-71
2022/09/06 00:23:53;;;;;;;1.35;0.95;;;;;;;;;;20770794;28;20565;-71
2022/09/06 00:33:55;;;;;;;1.50;0.93;;;;;;;;;;20787837;28;20276;-71
2022/09/06 00:43:57;;;;;;;1.52;0.82;;;;;;;;;;20771463;28;20233;-71
2022/09/06 00:54:02;;;;;;;1.45;1.00;;;;;;;;;;20787872;28;20244;-71
2022/09/06 01:04:05;;;;;;;0.80;0.57;;;22.40;99.90;;;;;;20787575;28;20214;-71
2022/09/06 01:14:39;;;;;;;1.23;0.80;;;;;;;;;;20802066;28;20229;-71
2022/09/06 01:25:09;;;;;;;1.52;0.80;;;22.30;99.90;;;;;;20759395;28;20636;-71
2022/09/06 01:35:41;;;;;;;0.80;0.60;;;22.40;99.90;;;;;;20785680;28;20284;-71
2022/09/06 01:46:08;;;;;;;1.20;0.77;;;22.10;99.90;;;;;;20790618;28;20292;-71
2022/09/06 01:56:09;;;;;;;2.10;0.60;;;;;;;;;;20800039;28;20632;-71
2022/09/06 02:06:14;;;;;;;0.88;0.70;;;;;;;;;;20799798;28;20268;-72
2022/09/06 02:16:22;;;;;;;1.02;0.60;;;22.30;99.90;;;;;;20798327;28;20710;-71
2022/09/06 02:26:27;;;;;;;2.25;0.50;;;22.20;99.90;;;;;;20797959;28;20210;-72
2022/09/06 02:36:30;;;;;;;1.20;0.60;;;22.10;99.90;;;;;;20795220;28;20228;-71
2022/09/06 02:46:32;;;;;;;0.93;0.60;;;;;;;;;;20810107;22;20221;-77
2022/09/06 02:56:35;;;;;;;0.68;0.45;;;;;;;;;;20807816;28;20223;-77
2022/09/06 03:06:37;;;;;;;2.03;0.70;;;;;;;;;;20808346;28;20235;-76
2022/09/06 03:16:39;;;;;;;1.17;0.50;;;;;;;;;;20809252;28;20234;-77
2022/09/06 03:26:40;;;;;;;1.30;0.57;;;;;;;;;;20812796;28;20303;-77
2022/09/06 03:36:42;;;;;;;1.60;0.90;;;;;;;;;;20803702;28;20551;-76
2022/09/06 03:46:45;;;;;;;0.60;0.43;;;;;;;;;;20813490;28;20237;-77
2022/09/06 03:56:46;;;;;;;1.43;0.60;;;;;;;;;;20814223;28;20220;-75
2022/09/06 04:06:48;;;;;;;1.95;0.90;;;;;;;;;;20796495;28;20213;-76
2022/09/06 04:16:51;;;;;;;2.30;0.60;;;;;;;;;;20808293;28;20517;-78
2022/09/06 04:26:52;;;;;;;1.70;0.90;;;;;;;;;;20798258;28;20282;-77
2022/09/06 04:36:54;;;;;;;1.40;0.70;;;;;;;;;;20828822;28;20282;-79
2022/09/06 04:47:04;;;;;;;0.90;0.60;;;;;;;;;;20820286;28;20230;-77
2022/09/06 04:57:06;;;;;;;1.33;0.83;;;;;;;;;;20821771;28;20234;-77
2022/09/06 05:07:08;;;;;;;1.63;1.00;;;;;;;;;;20823764;28;20204;-76
2022/09/06 05:17:09;;;;;;;1.70;0.90;;;;;;;;;;20822127;28;20251;-76
2022/09/06 05:27:11;;;;;;;1.40;0.90;;;;;;;;;;20831006;28;20208;-76
2022/09/06 05:37:13;;;;;;;1.80;1.13;;;;;;;;;;20813761;28;20220;-77
2022/09/06 05:47:15;;;;;;;1.97;1.10;;;;;;;;;;20867694;28;20244;-75
2022/09/06 05:57:16;;;;;;;3.00;0.90;;;;;;;;;;20841449;28;20576;-77
2022/09/06 06:07:18;;;;;;;2.70;1.20;;;;;;;;;;20797053;28;20279;-76
2022/09/06 06:17:20;;;;;;;3.03;0.90;;;;;;;;;;20804095;28;20267;-76
2022/09/06 06:27:22;;;;;;;1.43;0.90;;;;;;;;;;20817882;28;20216;-76
2022/09/06 06:37:23;;;;;;;4.87;1.13;;;;;;;;;;20798847;28;20227;-77
2022/09/06 06:47:25;;;;;;;0.93;0.73;;;;;;;;;;20828123;28;20225;-76
2022/09/06 06:57:26;;;;;;;2.40;1.10;;;;;;;;;;20813491;28;20274;-77
2022/09/06 07:07:28;;;;;;;2.33;1.10;;;;;;;;;;20823003;28;20212;-77
2022/09/06 07:17:30;;;;;;;2.03;1.00;;;;;;;;;;20806157;28;20286;-74
2022/09/06 07:27:32;;;;;;;1.50;0.87;;;;;;;;;;20822428;28;20224;-72
2022/09/06 07:37:33;;;;;;;1.40;1.00;;;;;;;;;;20820185;28;20216;-73
2022/09/06 07:47:35;;;;;;;1.40;0.93;;;;;;;;;;20812017;28;20229;-74
2022/09/06 07:57:37;;;;;;;1.30;1.00;;;;;;;;;;20815340;28;20572;-75
2022/09/06 08:07:38;;;;;;;1.60;0.83;;;;;;;;;;20800194;28;20217;-74
2022/09/06 08:17:40;;;;;;;1.58;1.00;;;;;;;;;;20816546;28;20229;-74
2022/09/06 08:27:42;;;;;;;1.40;1.00;;;;;;;;;;20815397;28;20218;-74
2022/09/06 08:37:43;;;;;;;1.58;1.00;;;;;;;;;;20809271;28;20223;-74
2022/09/06 08:47:45;;;;;;;1.85;1.10;;;;;;;;;;20816249;28;20230;-73
2022/09/06 08:58:05;;;;;;;1.25;1.00;;;;;;;;;;20825426;28;20215;-74
2022/09/06 09:08:31;;;;;;;1.83;1.20;;;23.60;99.90;;;;;;20779837;28;20264;-73
2022/09/06 09:18:37;;;;;;;2.38;1.17;;;23.90;99.90;;;;;;20815545;28;20734;-73
2022/09/06 09:29:04;;;;;;;2.20;1.50;;;24.10;99.90;;;;;;20815941;28;20212;-73
2022/09/06 09:39:10;;;;;;;2.13;1.33;;;24.30;99.90;;;;;;20815384;28;20286;-73
2022/09/06 09:49:13;;;;;;;3.00;1.10;;;;;;;;;;20815419;28;20588;-73
2022/09/06 09:59:35;;;;;;;1.33;1.10;;;24.80;99.90;;;;;;20812772;28;20269;-73
2022/09/06 10:09:38;;;;;;;2.38;1.10;;;;;;;;;;20807462;28;20222;-74
2022/09/06 10:19:41;;;;;;;1.77;0.90;;;;;;;;;;20867833;22;20782;-70
2022/09/06 10:29:55;;;;;;;1.27;1.00;;;25.60;99.90;;;;;;20831518;28;20204;-68
2022/09/06 10:40:07;;;;;;;2.20;0.90;;;25.70;99.90;;;;;;20786007;28;20599;-70
2022/09/06 10:50:09;;;;;;;1.92;1.20;;;;;;;;;;20791476;28;20219;-70
2022/09/06 11:00:13;;;;;;;4.55;0.80;;;;;;;;;;20763936;28;20289;-70
2022/09/06 11:10:30;;;;;;;1.27;0.80;;;26.50;99.90;;;;;;20777956;28;20228;-70
2022/09/06 11:20:47;;;;;;;1.98;0.80;;;26.70;99.90;;;;;;20765665;28;20871;-71
2022/09/06 11:30:52;;;;;;;2.85;1.10;;;;;;;;;;20795460;28;20245;-70
2022/09/06 11:41:01;;;;;;;4.30;0.90;;;27.40;99.90;;;;;;20760577;28;20243;-70
2022/09/06 11:51:09;;;;;;;0.85;0.60;;;31.40;99.90;;;;;;20789634;28;20220;-70
2022/09/06 12:01:12;;;;;;;0.98;0.63;;;;;;;;;;20819217;28;20225;-70
2022/09/06 12:11:40;;;;;;;1.08;0.60;;;28.10;99.90;;;;;;20793392;28;20275;-70
2022/09/06 12:21:51;;;;;;;2.05;0.90;;;;;;;;;;20774882;28;20240;-69
2022/09/06 12:31:56;;;;;;;1.23;0.70;;;;;;;;;;20788972;28;20256;-70
2022/09/06 12:42:02;;;;;;;1.38;0.50;;;28.90;99.90;;;;;;20783977;28;20271;-71
2022/09/06 12:52:11;;;;;;;1.92;0.60;;;;;;;;;;20757784;28;20221;-70
2022/09/06 13:02:19;;;;;;;0.77;0.47;;;28.50;99.90;;;;;;20785699;28;20766;-70
2022/09/06 13:12:30;;;;;;;1.05;0.40;;;;;;;;;;20797660;28;20589;-69
2022/09/06 13:22:38;;;;;;;1.73;0.50;;;;;;;;;;20795036;28;20228;-68
2022/09/06 13:32:46;;;;;;;0.82;0.47;;;27.70;99.90;;;;;;20782353;28;20294;-68
2022/09/06 13:42:48;;;;;;;0.90;0.60;;;;;;;;;;20806848;28;20204;-71
2022/09/06 13:52:49;;;;;;;1.42;0.63;;;;;;;;;;20796911;28;20773;-71
2022/09/06 14:02:54;;;;;;;2.95;0.65;;;;;;;;;;20816805;28;20275;-71
2022/09/06 14:12:55;;;;;;;1.88;0.77;;;;;;;;;;20793105;28;20221;-71
2022/09/06 14:22:58;;;;;;;1.83;0.60;;;;;;;;;;20777726;28;20292;-71
2022/09/06 14:33:00;;;;;;;2.10;0.80;;;;;;;;;;20780381;28;20295;-71
2022/09/06 14:43:01;;;;;;;1.42;0.63;;;;;;;;;;20794975;28;20218;-70
2022/09/06 14:53:04;;;;;;;1.52;0.65;;;;;;;;;;20808597;28;20228;-69
2022/09/06 15:03:05;;;;;;;8.65;1.50;;;;;;;;;;20778018;28;20228;-70
2022/09/06 15:13:08;;;;;;;2.60;0.85;;;;;;;;;;20809408;28;20221;-71
2022/09/06 15:23:10;;;;;;;5.75;1.05;;;;;;;;;;20776897;28;20217;-71
2022/09/06 15:33:13;;;;;;;2.90;0.50;;;;;;;;;;20776653;28;20221;-71
2022/09/06 15:43:15;;;;;;;1.05;0.40;;;;;;;;;;20791705;28;20244;-71
2022/09/06 15:53:17;;;;;;;2.03;0.40;;;;;;;;;;20774733;28;20233;-72
2022/09/06 16:03:19;;;;;;;0.98;0.50;;;;;;;;;;20773301;28;20213;-71
2022/09/06 16:13:21;;;;;;;1.38;0.63;;;;;;;;;;20773782;28;20218;-71
2022/09/06 16:23:24;;;;;;;0.93;0.55;;;;;;;;;;20789039;22;20237;-71
2022/09/06 16:33:26;;;;;;;0.70;0.40;;;;;;;;;;20717133;28;20708;-71
2022/09/06 16:43:28;;;;;;;1.58;0.60;;;;;;;;;;20730094;28;20265;-71
2022/09/06 16:53:30;;;;;;;1.25;0.70;;;;;;;;;;20711102;28;20223;-71
2022/09/06 17:03:31;;;;;;;1.63;0.88;;;;;;;;;;20729863;28;20275;-71
2022/09/06 17:13:33;;;;;;;2.10;0.90;;;;;;;;;;20756747;28;20592;-70
2022/09/06 17:23:35;;;;;;;0.95;0.60;;;;;;;;;;20777160;28;20227;-70
2022/09/06 17:33:37;;;;;;;2.28;0.63;;;;;;;;;;20752436;28;20743;-70
2022/09/06 17:43:39;;;;;;;1.35;0.65;;;;;;;;;;20765070;28;20232;-70
2022/09/06 17:53:42;;;;;;;1.10;0.70;;;;;;;;;;20755599;28;20640;-71
2022/09/06 18:03:45;;;;;;;2.00;0.65;;;;;;;;;;20724893;28;20227;-71
2022/09/06 18:13:53;;;;;;;3.80;0.82;;;;;;;;;;20727314;28;20286;-71
2022/09/06 18:23:55;;;;;;;2.47;0.73;;;;;;;;;;20750868;28;20222;-71
2022/09/06 18:33:57;;;;;;;2.85;0.80;;;;;;;;;;20741045;28;20733;-71
2022/09/06 18:44:01;;;;;;;1.23;0.73;;;25.00;99.90;;;;;;20742511;28;20272;-71
2022/09/06 18:54:03;;;;;;;2.53;0.85;;;;;;;;;;20738833;28;20226;-70
2022/09/06 19:04:06;;;;;;;1.50;0.80;;;25.80;99.90;;;;;;20721709;28;20215;-71
2022/09/06 19:14:08;;;;;;;3.50;0.90;;;;;;;;;;20734915;28;20264;-72
2022/09/06 19:24:11;;;;;;;2.70;0.90;;;24.60;99.90;;;;;;20735175;28;20246;-71
2022/09/06 19:34:14;;;;;;;2.30;1.10;;;;;;;;;;20728448;28;20344;-71
2022/09/06 19:44:16;;;;;;;1.20;0.65;;;;;;;;;;20726918;28;20214;-72
2022/09/06 19:54:18;;;;;;;1.30;0.52;;;;;;;;;;20712611;28;20216;-72
2022/09/06 20:04:20;;;;;;;1.00;0.70;;;;;;;;;;20731260;28;20214;-72
2022/09/06 20:14:25;;;;;;;1.95;0.85;;;;;;;;;;20733395;28;20628;-72
2022/09/06 20:24:27;;;;;;;1.85;0.60;;;;;;;;;;20736350;28;20222;-72
2022/09/06 20:34:29;;;;;;;0.77;0.50;;;;;;;;;;20734643;28;20221;-71
2022/09/06 20:44:31;;;;;;;3.05;0.73;;;;;;;;;;20729798;28;20598;-71
2022/09/06 20:54:33;;;;;;;2.30;0.80;;;;;;;;;;20719126;28;20815;-72
2022/09/06 21:04:34;;;;;;;1.80;0.68;;;;;;;;;;20730138;28;20209;-71
2022/09/06 21:14:36;;;;;;;0.65;0.50;;;;;;;;;;20729372;28;20232;-72
2022/09/06 21:24:38;;;;;;;2.72;0.65;;;;;;;;;;20746643;28;20251;-70
2022/09/06 21:34:40;;;;;;;2.92;0.80;;;;;;;;;;20714614;28;20221;-72
2022/09/06 21:44:42;;;;;;;3.15;0.88;;;;;;;;;;20716539;28;20256;-71
2022/09/06 21:54:43;;;;;;;2.30;0.70;;;;;;;;;;20723308;28;20292;-70
2022/09/06 22:04:45;;;;;;;1.20;0.80;;;;;;;;;;20742841;28;20630;-70
2022/09/06 22:14:47;;;;;;;1.73;0.75;;;;;;;;;;20751397;28;20224;-71
2022/09/06 22:24:49;;;;;;;2.40;0.93;;;;;;;;;;20746675;28;20226;-70
2022/09/06 22:34:51;;;;;;;1.13;0.55;;;;;;;;;;20791396;22;20280;-69
2022/09/06 22:44:53;;;;;;;0.73;0.55;;;;;;;;;;20702283;28;20214;-70
2022/09/06 22:54:55;;;;;;;1.23;0.60;;;;;;;;;;20694037;28;20282;-70
2022/09/06 23:04:57;;;;;;;1.70;1.00;;;;;;;;;;20687704;28;20666;-70
2022/09/06 23:14:59;;;;;;;1.63;0.60;;;;;;;;;;20679673;28;20233;-70
2022/09/06 23:25:01;;;;;;;1.15;0.80;;;;;;;;;;20694495;28;20234;-70
2022/09/06 23:35:03;;;;;;;2.33;1.23;;;;;;;;;;20699799;28;20231;-69
2022/09/06 23:45:05;;;;;;;2.63;0.95;;;22.70;99.90;;;;;;20686889;28;20231;-70
2022/09/06 23:55:08;;;;;;;0.98;0.65;;;22.70;99.90;;;;;;20701278;28;20230;-70
